createdAt,value
2023-05-23T00:02:08.227Z,22.57
2023-05-23T00:04:36.817Z,22.56
2023-05-23T00:07:04.460Z,22.55
2023-05-23T00:09:31.087Z,22.55
2023-05-23T00:11:57.856Z,22.55
2023-05-23T00:14:24.656Z,22.55
2023-05-23T00:16:51.824Z,22.55
2023-05-23T00:19:18.437Z,22.54
2023-05-23T00:21:50.938Z,22.54
2023-05-23T00:24:18.883Z,22.53
2023-05-23T00:26:46.578Z,22.55
2023-05-23T00:29:16.790Z,22.53
2023-05-23T00:31:46.573Z,22.52
2023-05-23T00:34:14.799Z,22.54
2023-05-23T00:36:43.654Z,22.52
2023-05-23T00:39:18.967Z,22.52
2023-05-23T00:41:49.162Z,22.52
2023-05-23T00:44:17.318Z,22.52
2023-05-23T00:46:47.524Z,22.51
2023-05-23T00:49:14.513Z,22.50
2023-05-23T00:51:43.127Z,22.50
2023-05-23T00:54:09.984Z,22.48
2023-05-23T00:56:38.664Z,22.47
2023-05-23T00:59:06.463Z,22.47
2023-05-23T01:01:33.534Z,22.46
2023-05-23T01:04:00.287Z,22.45
2023-05-23T01:06:30.559Z,22.45
2023-05-23T01:08:57.195Z,22.44
2023-05-23T01:11:33.145Z,22.42
2023-05-23T01:14:24.021Z,22.41
2023-05-23T01:17:01.633Z,22.42
2023-05-23T01:19:40.747Z,22.41
2023-05-23T01:22:16.799Z,22.41
2023-05-23T01:25:08.106Z,22.39
2023-05-23T01:27:53.057Z,22.39
2023-05-23T01:30:21.129Z,22.39
2023-05-23T01:32:50.782Z,22.39
2023-05-23T01:35:29.184Z,22.37
2023-05-23T01:37:56.326Z,22.36
2023-05-23T01:40:24.149Z,22.36
2023-05-23T01:42:51.927Z,22.35
2023-05-23T01:45:18.787Z,22.34
2023-05-23T01:47:49.207Z,22.34
2023-05-23T01:50:16.932Z,22.33
2023-05-23T01:52:43.712Z,22.32
2023-05-23T01:55:11.933Z,22.33
2023-05-23T01:57:39.012Z,22.32
2023-05-23T02:00:07.260Z,22.31
2023-05-23T02:02:34.446Z,22.30
2023-05-23T02:05:01.071Z,22.30
2023-05-23T02:07:27.865Z,22.30
2023-05-23T02:09:56.364Z,22.29
2023-05-23T02:12:23.258Z,22.29
2023-05-23T02:14:52.227Z,22.29
2023-05-23T02:17:18.887Z,22.28
2023-05-23T02:19:45.501Z,22.27
2023-05-23T02:22:12.032Z,22.27
2023-05-23T02:24:38.607Z,22.27
2023-05-23T02:27:05.706Z,22.27
2023-05-23T02:29:32.457Z,22.26
2023-05-23T02:31:59.239Z,22.25
2023-05-23T02:34:26.285Z,22.25
2023-05-23T02:36:52.836Z,22.25
2023-05-23T02:39:19.372Z,22.25
2023-05-23T02:41:45.899Z,22.24
2023-05-23T02:44:12.462Z,22.23
2023-05-23T02:46:39.117Z,22.23
2023-05-23T02:49:05.771Z,22.23
2023-05-23T02:51:32.626Z,22.22
2023-05-23T02:53:59.187Z,22.22
2023-05-23T02:56:26.948Z,22.21
2023-05-23T02:58:53.549Z,22.19
2023-05-23T03:01:20.264Z,22.19
2023-05-23T03:03:47.046Z,22.18
2023-05-23T03:06:14.544Z,22.17
2023-05-23T03:08:42.004Z,22.17
2023-05-23T03:11:08.689Z,22.16
2023-05-23T03:13:35.837Z,22.16
2023-05-23T03:16:02.748Z,22.16
2023-05-23T03:18:29.349Z,22.15
2023-05-23T03:20:55.933Z,22.14
2023-05-23T03:23:22.490Z,22.14
2023-05-23T03:25:49.395Z,22.14
2023-05-23T03:28:16.009Z,22.13
2023-05-23T03:30:42.596Z,22.12
2023-05-23T03:33:09.423Z,22.12
2023-05-23T03:35:36.048Z,22.12
2023-05-23T03:38:02.629Z,22.10
2023-05-23T03:40:29.197Z,22.10
2023-05-23T03:43:13.825Z,22.08
2023-05-23T03:45:40.777Z,22.09
2023-05-23T03:48:07.684Z,22.08
2023-05-23T03:50:34.414Z,22.08
2023-05-23T03:53:00.990Z,22.07
2023-05-23T03:55:27.614Z,22.06
2023-05-23T03:57:54.327Z,22.05
2023-05-23T04:00:20.959Z,22.04
2023-05-23T04:02:47.718Z,22.03
2023-05-23T04:05:14.408Z,22.05
2023-05-23T04:07:41.809Z,22.03
2023-05-23T04:10:09.406Z,22.02
2023-05-23T04:12:36.719Z,22.01
2023-05-23T04:15:04.029Z,22.00
2023-05-23T04:17:31.276Z,22.00
2023-05-23T04:19:58.207Z,21.98
2023-05-23T04:22:24.925Z,21.98
2023-05-23T04:24:51.640Z,21.97
2023-05-23T04:27:18.198Z,21.95
2023-05-23T04:29:46.860Z,21.95
2023-05-23T04:32:14.753Z,21.95
2023-05-23T04:34:41.339Z,21.93
2023-05-23T04:37:09.241Z,21.93
2023-05-23T04:39:35.850Z,21.92
2023-05-23T04:42:02.579Z,21.92
2023-05-23T04:44:30.249Z,21.91
2023-05-23T04:46:57.255Z,21.91
2023-05-23T04:49:23.889Z,21.91
2023-05-23T04:51:51.159Z,21.91
2023-05-23T04:54:17.747Z,21.91
2023-05-23T04:56:44.416Z,21.90
2023-05-23T04:59:11.539Z,21.90
2023-05-23T05:01:40.892Z,21.89
2023-05-23T05:04:07.849Z,21.90
2023-05-23T05:06:34.669Z,21.90
2023-05-23T05:09:01.282Z,21.89
2023-05-23T05:11:28.632Z,21.89
2023-05-23T05:13:55.363Z,21.89
2023-05-23T05:16:22.351Z,21.90
2023-05-23T05:18:48.950Z,21.90
2023-05-23T05:21:15.490Z,21.91
2023-05-23T05:23:42.091Z,21.91
2023-05-23T05:26:08.730Z,21.92
2023-05-23T05:28:35.336Z,21.92
2023-05-23T05:31:05.224Z,21.92
2023-05-23T05:33:36.084Z,21.93
2023-05-23T05:36:03.847Z,21.93
2023-05-23T05:38:30.688Z,21.93
2023-05-23T05:40:57.266Z,21.93
2023-05-23T05:43:23.969Z,21.93
2023-05-23T05:45:50.694Z,21.93
2023-05-23T05:48:17.643Z,21.93
2023-05-23T05:50:47.205Z,21.92
2023-05-23T05:53:14.251Z,21.93
2023-05-23T05:55:41.046Z,21.92
2023-05-23T05:58:07.676Z,21.92
2023-05-23T06:00:42.135Z,21.92
2023-05-23T06:03:09.314Z,21.92
2023-05-23T06:05:37.584Z,21.91
2023-05-23T06:08:04.878Z,21.92
2023-05-23T06:10:31.500Z,21.91
2023-05-23T06:12:59.712Z,21.91
2023-05-23T06:15:26.451Z,21.90
2023-05-23T06:17:53.204Z,21.90
2023-05-23T06:20:19.834Z,21.90
2023-05-23T06:22:46.647Z,21.90
2023-05-23T06:25:14.862Z,21.89
2023-05-23T06:27:41.431Z,21.86
2023-05-23T06:30:08.569Z,21.88
2023-05-23T06:32:35.214Z,21.86
2023-05-23T06:35:01.863Z,21.86
2023-05-23T06:37:28.465Z,21.85
2023-05-23T06:39:55.115Z,21.84
2023-05-23T06:42:21.689Z,21.84
2023-05-23T06:44:48.298Z,21.84
2023-05-23T06:47:14.898Z,21.83
2023-05-23T06:49:41.488Z,21.83
2023-05-23T06:52:08.045Z,21.82
2023-05-23T06:54:34.579Z,21.82
2023-05-23T06:57:01.223Z,21.81
2023-05-23T06:59:27.797Z,21.81
2023-05-23T07:01:54.350Z,21.81
2023-05-23T07:04:20.880Z,21.81
2023-05-23T07:06:47.596Z,21.81
2023-05-23T07:09:14.202Z,21.82
2023-05-23T07:11:41.241Z,21.83
2023-05-23T07:14:07.971Z,21.84
2023-05-23T07:16:34.665Z,21.86
2023-05-23T07:19:03.026Z,21.86
2023-05-23T07:21:29.648Z,21.89
2023-05-23T07:23:56.206Z,21.89
2023-05-23T07:26:22.785Z,21.90
2023-05-23T07:28:50.384Z,21.90
2023-05-23T07:31:17.130Z,21.92
2023-05-23T07:33:43.739Z,21.92
2023-05-23T07:36:11.517Z,21.91
2023-05-23T07:38:38.086Z,21.92
2023-05-23T07:41:11.569Z,21.94
2023-05-23T07:43:39.251Z,21.95
2023-05-23T07:46:05.905Z,21.97
2023-05-23T07:48:32.530Z,21.99
2023-05-23T07:50:59.256Z,22.02
2023-05-23T07:53:26.392Z,22.02
2023-05-23T07:55:53.019Z,22.05
2023-05-23T07:58:19.585Z,22.06
2023-05-23T08:00:46.214Z,22.07
2023-05-23T08:03:13.449Z,22.07
2023-05-23T08:05:40.293Z,22.08
2023-05-23T08:08:06.885Z,22.08
2023-05-23T08:10:33.585Z,22.09
2023-05-23T08:13:01.004Z,22.09
2023-05-23T08:15:28.852Z,22.11
2023-05-23T08:17:57.261Z,22.13
2023-05-23T08:20:30.874Z,22.14
2023-05-23T08:23:01.896Z,22.15
2023-05-23T08:25:32.426Z,22.17
2023-05-23T08:28:00.345Z,22.18
2023-05-23T08:30:28.142Z,22.18
2023-05-23T08:32:56.024Z,22.21
2023-05-23T08:35:23.072Z,22.21
2023-05-23T08:37:50.836Z,22.24
2023-05-23T08:40:22.613Z,22.25
2023-05-23T08:42:50.678Z,22.26
2023-05-23T08:45:18.231Z,22.28
2023-05-23T08:47:46.570Z,22.30
2023-05-23T08:50:16.080Z,22.30
2023-05-23T08:53:03.624Z,22.30
2023-05-23T08:55:32.552Z,22.33
2023-05-23T08:58:03.600Z,22.34
2023-05-23T09:00:30.316Z,22.35
2023-05-23T09:02:57.738Z,22.36
2023-05-23T09:05:26.390Z,22.37
2023-05-23T09:07:53.189Z,22.39
2023-05-23T09:10:22.790Z,22.42
2023-05-23T09:12:49.878Z,22.45
2023-05-23T09:15:17.388Z,22.47
2023-05-23T09:17:45.432Z,22.48
2023-05-23T09:20:15.420Z,22.48
2023-05-23T09:22:47.481Z,22.52
2023-05-23T09:25:14.470Z,22.53
2023-05-23T09:27:42.171Z,22.54
2023-05-23T09:30:10.728Z,22.56
2023-05-23T09:32:37.526Z,22.58
2023-05-23T09:35:06.364Z,22.60
2023-05-23T09:37:35.724Z,22.62
2023-05-23T09:40:10.453Z,22.63
2023-05-23T09:42:44.079Z,22.65
2023-05-23T09:45:11.846Z,22.67
2023-05-23T09:47:38.521Z,22.69
2023-05-23T09:50:05.777Z,22.70
2023-05-23T09:52:38.762Z,22.71
2023-05-23T09:55:06.789Z,22.73
2023-05-23T09:57:40.563Z,22.74
2023-05-23T10:00:14.121Z,22.74
2023-05-23T10:02:59.757Z,22.74
2023-05-23T10:05:48.020Z,22.77
2023-05-23T10:08:36.698Z,22.77
2023-05-23T10:11:26.382Z,22.80
2023-05-23T10:13:53.728Z,22.83
2023-05-23T10:17:11.997Z,22.85
2023-05-23T10:19:47.502Z,22.89
2023-05-23T10:22:15.831Z,22.90
2023-05-23T10:24:44.776Z,22.90
2023-05-23T10:27:11.788Z,22.92
2023-05-23T10:29:38.765Z,22.90
2023-05-23T10:32:06.837Z,22.93
2023-05-23T10:35:10.683Z,22.90
2023-05-23T10:37:40.308Z,22.92
2023-05-23T10:40:38.822Z,22.91
2023-05-23T10:43:39.152Z,22.92
2023-05-23T10:46:08.834Z,22.95
2023-05-23T10:48:41.048Z,22.95
2023-05-23T10:51:09.414Z,22.96
2023-05-23T10:53:41.263Z,22.95
2023-05-23T10:56:09.638Z,22.97
2023-05-23T10:58:38.698Z,22.97
2023-05-23T11:01:13.713Z,22.98
2023-05-23T11:03:46.410Z,22.98
2023-05-23T11:06:29.673Z,22.97
2023-05-23T11:09:09.845Z,22.98
2023-05-23T11:11:54.752Z,22.98
2023-05-23T11:14:34.288Z,22.98
2023-05-23T11:17:15.048Z,22.98
2023-05-23T11:20:08.769Z,22.98
2023-05-23T11:22:36.590Z,23.00
2023-05-23T11:25:10.378Z,23.00
2023-05-23T11:27:39.227Z,23.02
2023-05-23T11:30:13.659Z,23.06
2023-05-23T11:32:41.557Z,23.10
2023-05-23T11:35:11.939Z,23.11
2023-05-23T11:37:39.676Z,23.11
2023-05-23T11:40:25.159Z,23.12
2023-05-23T11:42:54.134Z,23.15
2023-05-23T11:45:22.215Z,23.15
2023-05-23T11:47:48.988Z,23.17
2023-05-23T11:50:16.927Z,23.19
2023-05-23T11:52:43.671Z,23.20
2023-05-23T11:55:10.237Z,23.20
2023-05-23T11:57:39.928Z,23.20
2023-05-23T12:00:08.918Z,23.21
2023-05-23T12:02:42.316Z,23.23
2023-05-23T12:05:13.809Z,23.23
2023-05-23T12:07:48.771Z,23.23
2023-05-23T12:10:16.901Z,23.24
2023-05-23T12:12:44.833Z,23.23
2023-05-23T12:15:12.452Z,23.22
2023-05-23T12:17:40.175Z,23.24
2023-05-23T12:20:07.928Z,23.25
2023-05-23T12:22:35.053Z,23.25
2023-05-23T12:25:02.365Z,23.25
2023-05-23T12:27:31.430Z,23.28
2023-05-23T12:30:17.252Z,23.28
2023-05-23T12:32:45.878Z,23.30
2023-05-23T12:35:14.861Z,23.28
2023-05-23T12:37:48.521Z,23.29
2023-05-23T12:40:16.052Z,23.29
2023-05-23T12:42:56.858Z,23.31
2023-05-23T12:45:30.868Z,23.32
2023-05-23T12:47:57.589Z,23.31
2023-05-23T12:50:24.398Z,23.30
2023-05-23T12:52:51.501Z,23.31
2023-05-23T12:55:18.274Z,23.31
2023-05-23T12:57:44.992Z,23.32
2023-05-23T13:00:12.548Z,23.31
2023-05-23T13:02:40.104Z,23.33
2023-05-23T13:05:07.450Z,23.32
2023-05-23T13:07:34.489Z,23.32
2023-05-23T13:10:02.600Z,23.33
2023-05-23T13:12:29.711Z,23.32
2023-05-23T13:14:57.950Z,23.32
2023-05-23T13:17:24.877Z,23.32
2023-05-23T13:19:51.801Z,23.33
2023-05-23T13:22:18.572Z,23.32
2023-05-23T13:24:46.211Z,23.33
2023-05-23T13:27:13.044Z,23.33
2023-05-23T13:29:40.012Z,23.34
2023-05-23T13:32:07.040Z,23.33
2023-05-23T13:34:37.297Z,23.35
2023-05-23T13:37:04.973Z,23.35
2023-05-23T13:39:31.870Z,23.36
2023-05-23T13:41:59.115Z,23.34
2023-05-23T13:44:25.809Z,23.35
2023-05-23T13:46:52.752Z,23.35
2023-05-23T13:49:19.505Z,23.37
2023-05-23T13:51:46.244Z,23.36
2023-05-23T13:54:14.071Z,23.37
2023-05-23T13:56:41.152Z,23.38
2023-05-23T13:59:07.851Z,23.38
2023-05-23T14:01:34.657Z,23.38
2023-05-23T14:04:01.588Z,23.38
2023-05-23T14:06:28.394Z,23.38
2023-05-23T14:08:56.031Z,23.38
2023-05-23T14:11:22.778Z,23.39
2023-05-23T14:13:49.546Z,23.38
2023-05-23T14:16:16.465Z,23.39
2023-05-23T14:18:43.786Z,23.38
2023-05-23T14:21:10.791Z,23.40
2023-05-23T14:23:37.404Z,23.40
2023-05-23T14:26:04.449Z,23.39
2023-05-23T14:28:31.619Z,23.39
2023-05-23T14:30:59.267Z,23.39
2023-05-23T14:33:26.302Z,23.39
2023-05-23T14:35:53.280Z,23.39
2023-05-23T14:38:20.397Z,23.39
2023-05-23T14:40:49.927Z,23.38
2023-05-23T14:43:17.172Z,23.39
2023-05-23T14:45:44.059Z,23.39
2023-05-23T14:48:11.692Z,23.37
2023-05-23T14:50:40.987Z,23.38
2023-05-23T14:53:07.708Z,23.37
2023-05-23T14:55:34.552Z,23.37
2023-05-23T14:58:01.572Z,23.38
2023-05-23T15:00:28.648Z,23.37
2023-05-23T15:02:55.823Z,23.37
2023-05-23T15:05:22.451Z,23.36
2023-05-23T15:07:49.372Z,23.36
2023-05-23T15:10:16.485Z,23.37
2023-05-23T15:12:43.977Z,23.37
2023-05-23T15:15:11.506Z,23.36
2023-05-23T15:17:38.266Z,23.34
2023-05-23T15:20:07.211Z,23.34
2023-05-23T15:22:39.512Z,23.35
2023-05-23T15:25:08.305Z,23.34
2023-05-23T15:27:35.099Z,23.35
2023-05-23T15:30:02.522Z,23.34
2023-05-23T15:32:29.529Z,23.36
2023-05-23T15:34:56.485Z,23.35
2023-05-23T15:37:24.249Z,23.35
2023-05-23T15:39:51.175Z,23.35
2023-05-23T15:42:20.429Z,23.35
2023-05-23T15:44:47.138Z,23.36
2023-05-23T15:47:15.274Z,23.36
2023-05-23T15:49:41.921Z,23.35
2023-05-23T15:52:09.056Z,23.33
2023-05-23T15:54:35.720Z,23.32
2023-05-23T15:57:02.450Z,23.30
2023-05-23T15:59:29.112Z,23.31
2023-05-23T16:01:56.963Z,23.30
2023-05-23T16:04:24.251Z,23.31
2023-05-23T16:06:51.765Z,23.31
2023-05-23T16:09:18.636Z,23.31
2023-05-23T16:11:45.411Z,23.31
2023-05-23T16:14:12.122Z,23.30
2023-05-23T16:16:38.881Z,23.30
2023-05-23T16:19:06.054Z,23.29
2023-05-23T16:21:33.353Z,23.27
2023-05-23T16:24:00.438Z,23.25
2023-05-23T16:26:28.264Z,23.24
2023-05-23T16:28:54.878Z,23.22
2023-05-23T16:31:27.154Z,23.21
2023-05-23T16:33:54.106Z,23.19
2023-05-23T16:36:21.105Z,23.15
2023-05-23T16:38:48.255Z,23.12
2023-05-23T16:41:18.245Z,23.09
2023-05-23T16:43:44.969Z,23.07
2023-05-23T16:46:11.869Z,23.07
2023-05-23T16:48:38.528Z,23.07
2023-05-23T16:51:06.383Z,23.06
2023-05-23T16:53:33.220Z,23.07
2023-05-23T16:55:59.914Z,23.08
2023-05-23T16:58:29.598Z,23.07
2023-05-23T17:00:56.648Z,23.06
2023-05-23T17:03:25.060Z,23.07
2023-05-23T17:05:54.072Z,23.05
2023-05-23T17:08:20.717Z,23.05
2023-05-23T17:10:47.529Z,23.05
2023-05-23T17:13:14.302Z,23.05
2023-05-23T17:15:41.213Z,23.03
2023-05-23T17:18:08.159Z,23.01
2023-05-23T17:20:34.858Z,22.99
2023-05-23T17:23:01.547Z,22.99
2023-05-23T17:25:28.528Z,22.98
2023-05-23T17:27:56.897Z,22.98
2023-05-23T17:30:23.669Z,22.98
2023-05-23T17:32:50.502Z,22.97
2023-05-23T17:35:17.458Z,22.96
2023-05-23T17:37:44.954Z,22.95
2023-05-23T17:40:12.887Z,22.96
2023-05-23T17:42:40.823Z,22.96
2023-05-23T17:45:09.813Z,22.94
2023-05-23T17:47:37.299Z,22.93
2023-05-23T17:50:05.004Z,22.90
2023-05-23T17:52:33.493Z,22.87
2023-05-23T17:55:00.622Z,22.86
2023-05-23T17:57:31.310Z,22.85
2023-05-23T17:59:59.303Z,22.83
2023-05-23T18:02:27.183Z,22.82
2023-05-23T18:04:54.631Z,22.81
2023-05-23T18:07:21.300Z,22.80
2023-05-23T18:09:49.127Z,22.79
2023-05-23T18:12:16.690Z,22.78
2023-05-23T18:14:44.484Z,22.76
2023-05-23T18:17:14.176Z,22.74
2023-05-23T18:19:42.267Z,22.72
2023-05-23T18:22:10.168Z,22.71
2023-05-23T18:24:37.593Z,22.70
2023-05-23T18:27:15.973Z,22.66
2023-05-23T18:29:44.199Z,22.65
2023-05-23T18:32:13.126Z,22.63
2023-05-23T18:34:40.154Z,22.61
2023-05-23T18:37:07.101Z,22.60
2023-05-23T18:39:34.038Z,22.59
2023-05-23T18:42:00.900Z,22.55
2023-05-23T18:44:28.709Z,22.54
2023-05-23T18:46:56.717Z,22.53
2023-05-23T18:49:23.569Z,22.50
2023-05-23T18:51:51.888Z,22.49
2023-05-23T18:54:18.852Z,22.46
2023-05-23T18:56:48.662Z,22.44
2023-05-23T18:59:16.932Z,22.41
2023-05-23T19:01:43.745Z,22.39
2023-05-23T19:04:12.359Z,22.37
2023-05-23T19:06:39.230Z,22.35
2023-05-23T19:09:10.212Z,22.33
2023-05-23T19:11:42.507Z,22.30
2023-05-23T19:14:10.339Z,22.29
2023-05-23T19:16:38.032Z,22.27
2023-05-23T19:19:06.259Z,22.26
2023-05-23T19:21:34.474Z,22.23
2023-05-23T19:24:02.371Z,22.21
2023-05-23T19:26:30.523Z,22.18
2023-05-23T19:29:10.141Z,22.16
2023-05-23T19:31:37.980Z,22.14
2023-05-23T19:34:06.550Z,22.13
2023-05-23T19:36:33.765Z,22.12
2023-05-23T19:39:01.443Z,22.10
2023-05-23T19:41:32.659Z,22.08
2023-05-23T19:43:59.882Z,22.07
2023-05-23T19:46:29.036Z,22.06
2023-05-23T19:49:00.032Z,22.05
2023-05-23T19:51:27.414Z,22.03
2023-05-23T19:53:55.053Z,22.01
2023-05-23T19:56:25.945Z,22.00
2023-05-23T19:58:52.671Z,21.98
2023-05-23T20:01:19.373Z,21.97
2023-05-23T20:03:46.152Z,21.95
2023-05-23T20:06:13.512Z,21.94
2023-05-23T20:08:40.400Z,21.92
2023-05-23T20:11:10.995Z,21.91
2023-05-23T20:13:39.113Z,21.90
2023-05-23T20:16:08.037Z,21.88
2023-05-23T20:18:36.399Z,21.86
2023-05-23T20:21:05.369Z,21.85
2023-05-23T20:23:32.226Z,21.86
2023-05-23T20:26:03.517Z,21.84
2023-05-23T20:28:31.886Z,21.82
2023-05-23T20:30:59.938Z,21.81
2023-05-23T20:33:26.813Z,21.81
2023-05-23T20:35:53.997Z,21.79
2023-05-23T20:38:20.681Z,21.78
2023-05-23T20:40:52.787Z,21.78
2023-05-23T20:43:22.232Z,21.76
2023-05-23T20:45:49.940Z,21.76
2023-05-23T20:48:17.041Z,21.74
2023-05-23T20:50:44.682Z,21.74
2023-05-23T20:53:11.914Z,21.72
2023-05-23T20:55:38.886Z,21.72
2023-05-23T20:58:07.390Z,21.70
2023-05-23T21:00:35.990Z,21.69
2023-05-23T21:03:03.053Z,21.68
2023-05-23T21:05:29.803Z,21.66
2023-05-23T21:07:56.543Z,21.66
2023-05-23T21:10:24.601Z,21.65
2023-05-23T21:12:51.712Z,21.65
2023-05-23T21:15:19.059Z,21.63
2023-05-23T21:17:47.062Z,21.62
2023-05-23T21:20:14.011Z,21.62
2023-05-23T21:22:41.231Z,21.60
2023-05-23T21:25:08.304Z,21.59
2023-05-23T21:27:34.981Z,21.59
2023-05-23T21:30:05.670Z,21.58
2023-05-23T21:32:33.046Z,21.58
2023-05-23T21:34:59.835Z,21.57
2023-05-23T21:37:26.764Z,21.56
2023-05-23T21:39:53.646Z,21.55
2023-05-23T21:42:20.972Z,21.54
2023-05-23T21:44:48.156Z,21.54
2023-05-23T21:47:14.953Z,21.52
2023-05-23T21:49:41.659Z,21.52
2023-05-23T21:52:08.328Z,21.51
2023-05-23T21:54:35.089Z,21.50
2023-05-23T21:57:01.843Z,21.50
2023-05-23T21:59:28.677Z,21.49
2023-05-23T22:01:55.589Z,21.48
2023-05-23T22:04:22.289Z,21.48
2023-05-23T22:06:49.077Z,21.47
2023-05-23T22:09:15.855Z,21.46
2023-05-23T22:11:43.134Z,21.45
2023-05-23T22:14:10.323Z,21.45
2023-05-23T22:16:40.548Z,21.44
2023-05-23T22:19:09.882Z,21.42
2023-05-23T22:21:36.909Z,21.42
2023-05-23T22:24:03.820Z,21.41
2023-05-23T22:26:30.746Z,21.40
2023-05-23T22:28:57.484Z,21.40
2023-05-23T22:31:24.459Z,21.40
2023-05-23T22:33:51.412Z,21.38
2023-05-23T22:36:18.326Z,21.38
2023-05-23T22:38:45.732Z,21.37
2023-05-23T22:41:12.352Z,21.36
2023-05-23T22:43:39.097Z,21.36
2023-05-23T22:46:06.248Z,21.36
2023-05-23T22:48:33.629Z,21.35
2023-05-23T22:51:02.079Z,21.34
2023-05-23T22:53:29.297Z,21.34
2023-05-23T22:55:56.115Z,21.33
2023-05-23T22:58:22.693Z,21.33
2023-05-23T23:00:49.311Z,21.33
2023-05-23T23:03:16.180Z,21.31
2023-05-23T23:05:42.997Z,21.31
2023-05-23T23:08:09.629Z,21.31
2023-05-23T23:10:36.288Z,21.29
2023-05-23T23:13:03.301Z,21.29
2023-05-23T23:15:30.196Z,21.29
2023-05-23T23:17:57.276Z,21.28
2023-05-23T23:20:24.020Z,21.27
2023-05-23T23:22:50.779Z,21.27
2023-05-23T23:25:18.988Z,21.26
2023-05-23T23:27:45.660Z,21.24
2023-05-23T23:30:12.547Z,21.22
2023-05-23T23:32:39.158Z,21.21
2023-05-23T23:35:06.267Z,21.19
2023-05-23T23:37:33.060Z,21.19
2023-05-23T23:39:59.620Z,21.18
2023-05-23T23:42:26.554Z,21.18
2023-05-23T23:44:53.134Z,21.17
2023-05-23T23:47:19.705Z,21.15
2023-05-23T23:49:46.230Z,21.15
2023-05-23T23:52:12.867Z,21.14
2023-05-23T23:54:39.459Z,21.13
2023-05-23T23:57:06.750Z,21.12
2023-05-23T23:59:33.322Z,21.11
